createdAt,value
2023-02-08T00:02:26.224Z,56.60
2023-02-08T00:04:53.105Z,57.00
2023-02-08T00:07:19.969Z,57.00
2023-02-08T00:09:46.919Z,57.00
2023-02-08T00:12:13.879Z,57.00
2023-02-08T00:14:40.756Z,56.90
2023-02-08T00:17:07.663Z,56.80
2023-02-08T00:19:34.604Z,56.80
2023-02-08T00:22:01.519Z,56.70
2023-02-08T00:24:28.472Z,56.50
2023-02-08T00:26:55.422Z,56.50
2023-02-08T00:29:22.362Z,56.50
2023-02-08T00:31:49.328Z,56.60
2023-02-08T00:34:16.268Z,56.70
2023-02-08T00:36:43.252Z,56.80
2023-02-08T00:39:10.146Z,56.90
2023-02-08T00:41:37.108Z,56.80
2023-02-08T00:44:04.068Z,56.70
2023-02-08T00:46:30.995Z,56.70
2023-02-08T00:48:57.971Z,56.70
2023-02-08T00:51:24.938Z,56.90
2023-02-08T00:53:51.795Z,57.10
2023-02-08T00:56:19.146Z,57.40
2023-02-08T00:58:46.716Z,57.50
2023-02-08T01:01:13.880Z,57.40
2023-02-08T01:03:41.940Z,57.40
2023-02-08T01:06:10.456Z,57.50
2023-02-08T01:08:37.490Z,57.30
2023-02-08T01:11:04.729Z,57.20
2023-02-08T01:13:31.628Z,57.40
2023-02-08T01:16:10.861Z,57.60
2023-02-08T01:18:38.509Z,57.70
2023-02-08T01:21:09.376Z,57.70
2023-02-08T01:23:36.708Z,57.70
2023-02-08T01:26:04.237Z,57.60
2023-02-08T01:28:31.208Z,57.60
2023-02-08T01:30:58.214Z,57.60
2023-02-08T01:33:25.221Z,57.50
2023-02-08T01:35:53.373Z,57.50
2023-02-08T01:38:20.601Z,57.50
2023-02-08T01:40:47.796Z,57.50
2023-02-08T01:43:34.508Z,57.50
2023-02-08T01:46:01.420Z,57.50
2023-02-08T01:48:30.236Z,57.40
2023-02-08T01:51:05.644Z,57.50
2023-02-08T01:53:33.518Z,57.50
2023-02-08T01:56:02.927Z,57.70
2023-02-08T01:58:31.737Z,57.70
2023-02-08T02:00:58.686Z,57.70
2023-02-08T02:03:25.790Z,57.70
2023-02-08T02:05:55.154Z,57.60
2023-02-08T02:08:22.248Z,57.50
2023-02-08T02:10:49.479Z,57.40
2023-02-08T02:13:21.268Z,57.60
2023-02-08T02:15:48.907Z,57.80
2023-02-08T02:18:23.599Z,57.70
2023-02-08T02:21:09.440Z,57.50
2023-02-08T02:23:48.576Z,57.30
2023-02-08T02:26:24.288Z,57.70
2023-02-08T02:29:00.356Z,58.10
2023-02-08T02:31:27.303Z,58.20
2023-02-08T02:34:03.280Z,57.60
2023-02-08T02:36:35.767Z,56.80
2023-02-08T02:39:05.722Z,56.70
2023-02-08T02:41:54.428Z,56.90
2023-02-08T02:44:24.226Z,56.70
2023-02-08T02:46:56.118Z,56.80
2023-02-08T02:49:46.340Z,56.90
2023-02-08T02:52:18.001Z,57.10
2023-02-08T02:54:45.112Z,56.90
2023-02-08T02:57:15.022Z,57.10
2023-02-08T02:59:43.161Z,57.40
2023-02-08T03:02:10.050Z,56.70
2023-02-08T03:04:40.049Z,56.50
2023-02-08T03:07:09.897Z,56.20
2023-02-08T03:09:42.593Z,56.20
2023-02-08T03:12:12.254Z,56.40
2023-02-08T03:14:45.183Z,56.90
2023-02-08T03:17:30.434Z,56.50
2023-02-08T03:20:06.519Z,56.30
2023-02-08T03:22:33.465Z,56.80
2023-02-08T03:25:10.194Z,56.60
2023-02-08T03:27:44.598Z,57.00
2023-02-08T03:30:20.546Z,57.10
2023-02-08T03:32:50.615Z,56.70
2023-02-08T03:35:23.176Z,56.80
2023-02-08T03:37:59.763Z,56.40
2023-02-08T03:40:32.975Z,56.30
2023-02-08T03:43:01.686Z,55.90
2023-02-08T03:45:33.718Z,55.80
2023-02-08T03:48:03.237Z,56.10
2023-02-08T03:50:34.601Z,55.90
2023-02-08T03:53:01.846Z,55.80
2023-02-08T03:55:31.555Z,56.00
2023-02-08T03:58:17.283Z,56.30
2023-02-08T04:00:46.184Z,56.30
2023-02-08T04:03:26.685Z,56.20
2023-02-08T04:05:53.979Z,56.50
2023-02-08T04:08:22.084Z,56.60
2023-02-08T04:10:49.161Z,56.70
2023-02-08T04:13:16.470Z,56.40
2023-02-08T04:15:44.509Z,56.50
2023-02-08T04:18:11.431Z,56.20
2023-02-08T04:20:38.458Z,55.90
2023-02-08T04:23:05.489Z,56.10
2023-02-08T04:25:32.392Z,56.20
2023-02-08T04:28:00.121Z,56.70
2023-02-08T04:30:27.282Z,56.80
2023-02-08T04:32:54.265Z,56.50
2023-02-08T04:35:21.258Z,56.70
2023-02-08T04:37:48.137Z,56.80
2023-02-08T04:40:15.056Z,56.80
2023-02-08T04:42:41.935Z,56.80
2023-02-08T04:45:09.337Z,56.80
2023-02-08T04:47:36.195Z,56.90
2023-02-08T04:50:03.146Z,57.10
2023-02-08T04:52:30.017Z,57.20
2023-02-08T04:54:56.896Z,57.20
2023-02-08T04:57:23.881Z,57.10
2023-02-08T04:59:50.772Z,57.30
2023-02-08T05:02:17.683Z,57.30
2023-02-08T05:04:44.681Z,57.60
2023-02-08T05:07:11.517Z,57.90
2023-02-08T05:09:38.390Z,58.10
2023-02-08T05:12:05.449Z,58.20
2023-02-08T05:14:32.515Z,58.00
2023-02-08T05:16:59.405Z,57.90
2023-02-08T05:19:26.598Z,57.90
2023-02-08T05:21:53.463Z,58.00
2023-02-08T05:24:20.273Z,58.10
2023-02-08T05:26:47.201Z,58.10
2023-02-08T05:29:14.733Z,58.00
2023-02-08T05:31:41.762Z,58.20
2023-02-08T05:34:08.700Z,58.40
2023-02-08T05:36:35.631Z,58.20
2023-02-08T05:39:02.456Z,58.10
2023-02-08T05:41:29.308Z,58.10
2023-02-08T05:43:56.176Z,58.00
2023-02-08T05:46:23.059Z,58.10
2023-02-08T05:48:50.001Z,58.00
2023-02-08T05:51:17.040Z,58.20
2023-02-08T05:53:45.471Z,58.40
2023-02-08T05:56:12.551Z,58.20
2023-02-08T05:58:39.396Z,58.30
2023-02-08T06:01:12.999Z,58.10
2023-02-08T06:03:40.063Z,58.30
2023-02-08T06:06:07.676Z,58.50
2023-02-08T06:08:34.488Z,58.50
2023-02-08T06:11:01.342Z,58.40
2023-02-08T06:13:29.342Z,58.40
2023-02-08T06:15:56.333Z,58.50
2023-02-08T06:18:23.346Z,58.70
2023-02-08T06:20:52.776Z,58.50
2023-02-08T06:23:19.861Z,58.60
2023-02-08T06:25:46.796Z,58.70
2023-02-08T06:28:13.758Z,58.60
2023-02-08T06:30:41.717Z,58.60
2023-02-08T06:33:09.222Z,58.60
2023-02-08T06:35:36.162Z,58.70
2023-02-08T06:38:03.106Z,59.00
2023-02-08T06:40:29.958Z,59.10
2023-02-08T06:42:56.850Z,59.10
2023-02-08T06:45:23.705Z,59.30
2023-02-08T06:47:50.594Z,59.30
2023-02-08T06:50:17.608Z,59.30
2023-02-08T06:52:44.477Z,59.50
2023-02-08T06:55:11.283Z,59.90
2023-02-08T06:57:38.232Z,60.00
2023-02-08T07:00:05.762Z,59.90
2023-02-08T07:02:32.920Z,59.80
2023-02-08T07:04:59.847Z,59.80
2023-02-08T07:07:27.809Z,59.90
2023-02-08T07:09:54.657Z,60.00
2023-02-08T07:12:21.564Z,60.10
2023-02-08T07:14:48.484Z,60.20
2023-02-08T07:17:15.329Z,60.20
2023-02-08T07:19:42.181Z,60.30
2023-02-08T07:22:09.226Z,60.40
2023-02-08T07:24:37.624Z,60.70
2023-02-08T07:27:04.971Z,60.80
2023-02-08T07:29:32.360Z,60.70
2023-02-08T07:32:00.203Z,60.70
2023-02-08T07:34:29.304Z,60.70
2023-02-08T07:36:56.132Z,60.50
2023-02-08T07:39:23.135Z,60.50
2023-02-08T07:41:49.974Z,60.50
2023-02-08T07:44:16.817Z,61.00
2023-02-08T07:46:43.712Z,61.00
2023-02-08T07:49:10.631Z,60.90
2023-02-08T07:51:37.540Z,60.70
2023-02-08T07:54:04.648Z,60.50
2023-02-08T07:56:31.579Z,60.70
2023-02-08T07:58:58.462Z,60.40
2023-02-08T08:01:25.493Z,60.30
2023-02-08T08:03:52.739Z,60.60
2023-02-08T08:06:20.740Z,60.50
2023-02-08T08:08:47.898Z,60.70
2023-02-08T08:11:15.590Z,61.00
2023-02-08T08:13:42.775Z,61.10
2023-02-08T08:16:10.112Z,60.80
2023-02-08T08:18:37.164Z,60.90
2023-02-08T08:21:04.298Z,61.10
2023-02-08T08:23:33.394Z,61.30
2023-02-08T08:26:01.000Z,61.90
2023-02-08T08:28:28.141Z,62.00
2023-02-08T08:30:55.238Z,62.10
2023-02-08T08:33:22.142Z,61.70
2023-02-08T08:35:49.058Z,61.70
2023-02-08T08:38:15.961Z,61.80
2023-02-08T08:40:43.358Z,61.70
2023-02-08T08:43:10.319Z,61.40
2023-02-08T08:45:37.514Z,61.70
2023-02-08T08:48:04.602Z,61.80
2023-02-08T08:50:31.490Z,61.80
2023-02-08T08:52:58.419Z,61.40
2023-02-08T08:55:26.057Z,61.60
2023-02-08T08:57:53.574Z,60.60
2023-02-08T09:00:20.501Z,59.00
2023-02-08T09:02:47.446Z,58.90
2023-02-08T09:05:14.381Z,58.30
2023-02-08T09:07:41.307Z,57.10
2023-02-08T09:10:08.362Z,56.70
2023-02-08T09:12:35.363Z,57.00
2023-02-08T09:15:02.340Z,55.50
2023-02-08T09:17:29.215Z,54.60
2023-02-08T09:19:56.163Z,53.80
2023-02-08T09:22:23.086Z,54.40
2023-02-08T09:24:50.035Z,55.00
2023-02-08T09:27:19.162Z,55.40
2023-02-08T09:29:46.185Z,54.60
2023-02-08T09:32:13.087Z,53.30
2023-02-08T09:34:40.005Z,51.90
2023-02-08T09:37:07.413Z,50.80
2023-02-08T09:39:35.176Z,51.30
2023-02-08T09:42:02.085Z,49.50
2023-02-08T09:44:41.971Z,48.00
2023-02-08T09:47:12.827Z,48.30
2023-02-08T09:50:02.852Z,49.00
2023-02-08T09:52:35.155Z,49.60
2023-02-08T09:55:04.121Z,51.50
2023-02-08T09:57:34.203Z,51.40
2023-02-08T10:00:13.296Z,51.20
2023-02-08T10:02:41.997Z,48.30
2023-02-08T10:05:17.076Z,48.80
2023-02-08T10:07:44.279Z,48.50
2023-02-08T10:10:15.710Z,48.80
2023-02-08T10:12:53.808Z,48.20
2023-02-08T10:15:29.562Z,48.70
2023-02-08T10:18:19.488Z,46.40
2023-02-08T10:21:05.074Z,45.30
2023-02-08T10:23:39.038Z,46.70
2023-02-08T10:26:24.889Z,46.90
2023-02-08T10:28:54.511Z,46.00
2023-02-08T10:31:23.485Z,45.10
2023-02-08T10:33:55.008Z,44.30
2023-02-08T10:36:25.249Z,44.20
2023-02-08T10:38:54.122Z,43.90
2023-02-08T10:41:23.576Z,44.40
2023-02-08T10:44:10.949Z,45.10
2023-02-08T10:46:37.789Z,45.70
2023-02-08T10:49:08.558Z,46.10
2023-02-08T10:51:35.885Z,46.20
2023-02-08T10:54:02.979Z,45.80
2023-02-08T10:56:29.804Z,45.50
2023-02-08T10:58:58.529Z,45.30
2023-02-08T11:01:26.302Z,45.60
2023-02-08T11:04:07.722Z,46.10
2023-02-08T11:06:34.641Z,46.00
2023-02-08T11:09:01.640Z,44.90
2023-02-08T11:11:33.967Z,44.40
2023-02-08T11:14:09.235Z,44.50
2023-02-08T11:16:36.892Z,44.50
2023-02-08T11:19:07.978Z,44.40
2023-02-08T11:21:39.403Z,44.90
2023-02-08T11:24:15.562Z,44.80
2023-02-08T11:26:42.984Z,45.20
2023-02-08T11:29:18.152Z,44.70
2023-02-08T11:32:01.954Z,44.20
2023-02-08T11:34:30.190Z,44.10
2023-02-08T11:36:57.518Z,43.40
2023-02-08T11:39:27.383Z,42.00
2023-02-08T11:41:56.936Z,42.10
2023-02-08T11:44:27.534Z,41.80
2023-02-08T11:46:55.851Z,41.80
2023-02-08T11:49:27.789Z,42.20
2023-02-08T11:51:55.028Z,42.70
2023-02-08T11:54:41.556Z,42.70
2023-02-08T11:57:13.158Z,42.60
2023-02-08T11:59:39.993Z,43.40
2023-02-08T12:02:25.450Z,43.40
2023-02-08T12:04:52.393Z,42.70
2023-02-08T12:07:35.113Z,43.50
2023-02-08T12:10:04.993Z,42.40
2023-02-08T12:12:47.633Z,43.10
2023-02-08T12:15:31.767Z,42.90
2023-02-08T12:18:07.670Z,43.40
2023-02-08T12:20:39.418Z,43.10
2023-02-08T12:23:30.293Z,43.10
2023-02-08T12:26:05.458Z,43.50
2023-02-08T12:28:32.283Z,43.30
2023-02-08T12:31:03.030Z,42.80
2023-02-08T12:33:37.723Z,42.50
2023-02-08T12:36:10.858Z,42.40
2023-02-08T12:39:05.383Z,43.20
2023-02-08T12:41:46.437Z,42.90
2023-02-08T12:44:36.549Z,42.30
2023-02-08T12:47:12.281Z,42.20
2023-02-08T12:50:03.143Z,42.10
2023-02-08T12:52:36.437Z,42.90
2023-02-08T12:55:15.616Z,42.90
2023-02-08T12:57:45.146Z,43.20
2023-02-08T13:00:22.055Z,43.50
2023-02-08T13:02:57.755Z,43.30
2023-02-08T13:05:28.419Z,43.80
2023-02-08T13:07:58.771Z,44.10
2023-02-08T13:10:28.548Z,43.90
2023-02-08T13:12:57.311Z,44.00
2023-02-08T13:15:31.065Z,44.20
2023-02-08T13:17:59.344Z,44.20
2023-02-08T13:20:49.263Z,44.50
2023-02-08T13:23:43.485Z,44.80
2023-02-08T13:26:21.090Z,44.70
2023-02-08T13:28:48.976Z,44.90
2023-02-08T13:31:24.765Z,45.10
2023-02-08T13:34:01.968Z,44.70
2023-02-08T13:36:35.356Z,44.60
2023-02-08T13:39:04.040Z,44.80
2023-02-08T13:41:32.386Z,44.80
2023-02-08T13:44:02.903Z,44.80
2023-02-08T13:46:35.796Z,44.20
2023-02-08T13:49:02.624Z,44.70
2023-02-08T13:51:32.187Z,44.20
2023-02-08T13:54:19.293Z,44.30
2023-02-08T13:56:48.392Z,44.60
2023-02-08T13:59:27.237Z,44.50
2023-02-08T14:02:09.369Z,44.70
2023-02-08T14:04:37.620Z,44.20
2023-02-08T14:07:14.514Z,43.50
2023-02-08T14:09:41.415Z,43.30
2023-02-08T14:12:33.167Z,42.40
2023-02-08T14:15:23.791Z,43.00
2023-02-08T14:17:59.706Z,43.50
2023-02-08T14:20:39.877Z,43.40
2023-02-08T14:23:26.456Z,43.40
2023-02-08T14:25:55.118Z,42.70
2023-02-08T14:28:42.279Z,42.70
2023-02-08T14:31:10.731Z,43.30
2023-02-08T14:33:40.333Z,43.20
2023-02-08T14:36:19.396Z,43.50
2023-02-08T14:38:55.557Z,43.60
2023-02-08T14:41:41.274Z,43.80
2023-02-08T14:44:47.584Z,44.30
2023-02-08T14:47:26.981Z,44.40
2023-02-08T14:50:11.329Z,44.30
2023-02-08T14:52:38.781Z,44.50
2023-02-08T14:55:13.903Z,45.10
2023-02-08T14:57:41.284Z,45.10
2023-02-08T15:00:16.136Z,45.30
2023-02-08T15:02:45.600Z,45.50
2023-02-08T15:05:26.248Z,45.40
2023-02-08T15:07:53.268Z,45.40
2023-02-08T15:10:21.271Z,45.40
2023-02-08T15:12:50.367Z,45.70
2023-02-08T15:15:26.368Z,45.70
2023-02-08T15:17:53.859Z,45.60
2023-02-08T15:20:22.799Z,45.60
2023-02-08T15:22:57.780Z,45.70
2023-02-08T15:25:24.759Z,46.10
2023-02-08T15:27:53.073Z,46.50
2023-02-08T15:30:34.052Z,47.10
2023-02-08T15:33:02.078Z,46.80
2023-02-08T15:35:29.219Z,47.10
2023-02-08T15:37:56.194Z,47.40
2023-02-08T15:40:28.184Z,47.40
2023-02-08T15:42:55.415Z,47.30
2023-02-08T15:45:30.897Z,47.90
2023-02-08T15:47:58.439Z,47.90
2023-02-08T15:50:25.999Z,48.00
2023-02-08T15:53:00.692Z,48.10
2023-02-08T15:55:30.350Z,48.30
2023-02-08T15:57:57.277Z,48.40
2023-02-08T16:00:26.216Z,48.60
2023-02-08T16:02:58.064Z,48.80
2023-02-08T16:05:35.165Z,48.80
2023-02-08T16:08:02.744Z,48.70
2023-02-08T16:10:33.876Z,48.70
2023-02-08T16:13:02.692Z,48.80
2023-02-08T16:15:36.330Z,49.10
2023-02-08T16:18:03.565Z,49.10
2023-02-08T16:20:33.810Z,49.20
2023-02-08T16:23:19.559Z,49.20
2023-02-08T16:25:49.272Z,49.20
2023-02-08T16:28:25.134Z,49.40
2023-02-08T16:30:52.273Z,49.50
2023-02-08T16:33:19.872Z,49.60
2023-02-08T16:35:46.825Z,49.70
2023-02-08T16:38:18.204Z,49.80
2023-02-08T16:40:52.601Z,49.80
2023-02-08T16:43:24.690Z,49.80
2023-02-08T16:46:09.870Z,49.80
2023-02-08T16:48:41.029Z,49.90
2023-02-08T16:51:12.680Z,50.10
2023-02-08T16:53:42.523Z,50.30
2023-02-08T16:56:10.846Z,50.20
2023-02-08T16:58:37.766Z,50.20
2023-02-08T17:01:04.880Z,50.30
2023-02-08T17:03:32.821Z,50.20
2023-02-08T17:06:00.264Z,50.40
2023-02-08T17:08:27.241Z,50.40
2023-02-08T17:10:58.938Z,50.60
2023-02-08T17:13:29.242Z,50.80
2023-02-08T17:15:57.971Z,50.80
2023-02-08T17:18:24.862Z,51.20
2023-02-08T17:20:57.878Z,51.00
2023-02-08T17:23:24.937Z,51.20
2023-02-08T17:25:52.555Z,51.10
2023-02-08T17:28:21.087Z,51.20
2023-02-08T17:30:48.678Z,51.20
2023-02-08T17:33:18.853Z,51.40
2023-02-08T17:35:47.340Z,51.40
2023-02-08T17:38:15.701Z,51.40
2023-02-08T17:40:43.195Z,51.70
2023-02-08T17:43:10.522Z,51.60
2023-02-08T17:45:42.565Z,51.70
2023-02-08T17:48:10.173Z,51.70
2023-02-08T17:50:37.145Z,51.90
2023-02-08T17:53:04.233Z,52.00
2023-02-08T17:55:31.331Z,52.10
2023-02-08T17:57:58.368Z,52.20
2023-02-08T18:00:26.376Z,52.20
2023-02-08T18:02:54.718Z,52.20
2023-02-08T18:05:25.098Z,52.40
2023-02-08T18:07:52.989Z,52.80
2023-02-08T18:10:20.222Z,52.50
2023-02-08T18:12:47.426Z,52.60
2023-02-08T18:15:16.307Z,52.60
2023-02-08T18:17:43.756Z,52.70
2023-02-08T18:20:11.240Z,52.50
2023-02-08T18:22:38.276Z,52.60
2023-02-08T18:25:05.674Z,52.80
2023-02-08T18:27:32.680Z,52.90
2023-02-08T18:29:59.845Z,53.10
2023-02-08T18:32:28.391Z,53.10
2023-02-08T18:34:55.766Z,53.00
2023-02-08T18:37:23.424Z,53.20
2023-02-08T18:39:51.387Z,53.40
2023-02-08T18:42:18.716Z,53.40
2023-02-08T18:44:45.971Z,53.60
2023-02-08T18:47:13.157Z,53.30
2023-02-08T18:49:43.040Z,53.50
2023-02-08T18:52:10.458Z,53.70
2023-02-08T18:54:38.481Z,53.80
2023-02-08T18:57:06.383Z,53.90
2023-02-08T18:59:33.695Z,54.00
2023-02-08T19:02:01.927Z,54.10
2023-02-08T19:04:29.082Z,54.00
2023-02-08T19:06:56.003Z,54.30
2023-02-08T19:09:22.832Z,54.50
2023-02-08T19:11:49.822Z,54.50
2023-02-08T19:14:16.649Z,54.50
2023-02-08T19:16:43.684Z,54.50
2023-02-08T19:19:10.830Z,54.70
2023-02-08T19:21:38.354Z,54.90
2023-02-08T19:24:05.487Z,54.90
2023-02-08T19:26:39.767Z,55.20
2023-02-08T19:29:08.090Z,55.40
2023-02-08T19:31:35.197Z,55.40
2023-02-08T19:34:03.016Z,55.30
2023-02-08T19:36:31.478Z,55.30
2023-02-08T19:38:58.638Z,55.40
2023-02-08T19:41:36.100Z,55.40
2023-02-08T19:44:06.681Z,55.50
2023-02-08T19:46:34.759Z,55.70
2023-02-08T19:49:02.357Z,55.60
2023-02-08T19:51:33.232Z,55.70
2023-02-08T19:54:01.254Z,55.80
2023-02-08T19:56:31.331Z,55.80
2023-02-08T19:58:58.323Z,56.10
2023-02-08T20:01:25.388Z,55.90
2023-02-08T20:03:53.648Z,55.90
2023-02-08T20:06:26.130Z,56.20
2023-02-08T20:08:53.711Z,56.20
2023-02-08T20:11:20.618Z,55.80
2023-02-08T20:13:47.585Z,55.80
2023-02-08T20:16:14.715Z,55.70
2023-02-08T20:18:41.945Z,55.70
2023-02-08T20:21:08.863Z,55.60
2023-02-08T20:23:36.427Z,55.40
2023-02-08T20:26:13.981Z,55.60
2023-02-08T20:28:44.424Z,55.30
2023-02-08T20:31:16.278Z,55.30
2023-02-08T20:33:43.223Z,55.40
2023-02-08T20:36:12.187Z,55.50
2023-02-08T20:38:39.613Z,55.70
2023-02-08T20:41:08.319Z,55.90
2023-02-08T20:43:35.528Z,55.40
2023-02-08T20:46:06.586Z,55.30
2023-02-08T20:48:33.797Z,55.20
2023-02-08T20:51:11.070Z,55.30
2023-02-08T20:53:39.416Z,55.30
2023-02-08T20:56:10.909Z,55.20
2023-02-08T20:58:38.083Z,55.00
2023-02-08T21:01:08.904Z,55.20
2023-02-08T21:03:36.084Z,55.50
2023-02-08T21:06:13.747Z,55.30
2023-02-08T21:08:40.655Z,55.40
2023-02-08T21:11:07.593Z,55.20
2023-02-08T21:13:34.527Z,55.30
2023-02-08T21:16:04.435Z,55.00
2023-02-08T21:18:31.260Z,55.00
2023-02-08T21:20:58.320Z,55.30
2023-02-08T21:23:25.322Z,55.50
2023-02-08T21:25:52.544Z,55.30
2023-02-08T21:28:19.508Z,55.40
2023-02-08T21:30:58.841Z,55.20
2023-02-08T21:33:28.499Z,54.80
2023-02-08T21:35:55.974Z,54.90
2023-02-08T21:38:22.923Z,54.90
2023-02-08T21:40:49.791Z,54.70
2023-02-08T21:43:16.657Z,54.80
2023-02-08T21:45:43.626Z,54.90
2023-02-08T21:48:10.419Z,54.80
2023-02-08T21:50:57.130Z,54.90
2023-02-08T21:53:56.644Z,54.70
2023-02-08T21:56:23.583Z,54.70
2023-02-08T21:58:50.384Z,54.90
2023-02-08T22:01:17.311Z,54.80
2023-02-08T22:03:44.198Z,54.70
2023-02-08T22:06:11.539Z,54.50
2023-02-08T22:08:38.534Z,54.50
2023-02-08T22:11:06.194Z,54.70
2023-02-08T22:13:34.092Z,54.70
2023-02-08T22:16:02.622Z,54.50
2023-02-08T22:18:29.704Z,54.20
2023-02-08T22:20:56.531Z,54.30
2023-02-08T22:23:23.450Z,54.50
2023-02-08T22:25:50.483Z,54.50
2023-02-08T22:28:17.486Z,54.30
2023-02-08T22:30:47.122Z,54.30
2023-02-08T22:33:14.682Z,54.20
2023-02-08T22:35:41.576Z,53.80
2023-02-08T22:38:10.007Z,53.90
2023-02-08T22:40:36.997Z,54.00
2023-02-08T22:43:03.931Z,54.10
2023-02-08T22:45:30.800Z,54.00
2023-02-08T22:47:57.652Z,53.90
2023-02-08T22:50:24.570Z,54.00
2023-02-08T22:52:51.402Z,54.00
2023-02-08T22:55:18.292Z,54.10
2023-02-08T22:57:45.354Z,54.00
2023-02-08T23:00:13.841Z,53.70
2023-02-08T23:02:40.744Z,53.80
2023-02-08T23:05:07.657Z,53.90
2023-02-08T23:07:37.030Z,54.20
2023-02-08T23:10:04.020Z,54.20
2023-02-08T23:12:31.434Z,54.30
2023-02-08T23:14:58.296Z,54.40
2023-02-08T23:17:25.362Z,54.30
2023-02-08T23:19:53.313Z,54.30
2023-02-08T23:22:20.173Z,54.30
2023-02-08T23:24:47.071Z,54.50
2023-02-08T23:27:13.969Z,54.10
2023-02-08T23:29:40.850Z,54.00
2023-02-08T23:32:07.828Z,53.80
2023-02-08T23:34:35.015Z,53.70
2023-02-08T23:37:01.978Z,53.90
2023-02-08T23:39:28.815Z,54.30
2023-02-08T23:41:56.187Z,54.10
2023-02-08T23:44:23.983Z,54.10
2023-02-08T23:46:50.870Z,54.10
2023-02-08T23:49:17.834Z,54.30
2023-02-08T23:51:44.812Z,54.10
2023-02-08T23:54:11.703Z,54.20
2023-02-08T23:56:38.518Z,54.20
2023-02-08T23:59:08.369Z,54.30
